sensor_id;sensor_type;location;lat;lon;timestamp;P1;durP1;ratioP1;P2;durP2;ratioP2
51800;SDS011;37855;53.204;6.568;2024-02-14T00:00:33;10.93;;;4.78;;
51800;SDS011;37855;53.204;6.568;2024-02-14T00:02:59;9.07;;;4.60;;
51800;SDS011;37855;53.204;6.568;2024-02-14T00:05:25;10.87;;;4.77;;
51800;SDS011;37855;53.204;6.568;2024-02-14T00:07:51;9.25;;;5.00;;
51800;SDS011;37855;53.204;6.568;2024-02-14T00:10:17;9.45;;;4.88;;
51800;SDS011;37855;53.204;6.568;2024-02-14T00:12:45;9.10;;;5.00;;
51800;SDS011;37855;53.204;6.568;2024-02-14T00:15:20;9.15;;;4.90;;
51800;SDS011;37855;53.204;6.568;2024-02-14T00:17:45;11.25;;;5.30;;
51800;SDS011;37855;53.204;6.568;2024-02-14T00:20:11;7.63;;;5.47;;
51800;SDS011;37855;53.204;6.568;2024-02-14T00:22:38;10.90;;;5.15;;
51800;SDS011;37855;53.204;6.568;2024-02-14T00:25:04;11.80;;;5.50;;
51800;SDS011;37855;53.204;6.568;2024-02-14T00:27:30;9.80;;;5.43;;
51800;SDS011;37855;53.204;6.568;2024-02-14T00:29:55;10.67;;;5.90;;
51800;SDS011;37855;53.204;6.568;2024-02-14T00:32:21;8.47;;;5.63;;
51800;SDS011;37855;53.204;6.568;2024-02-14T00:34:47;9.88;;;5.90;;
51800;SDS011;37855;53.204;6.568;2024-02-14T00:37:14;10.52;;;5.68;;
51800;SDS011;37855;53.204;6.568;2024-02-14T00:39:40;9.63;;;6.33;;
51800;SDS011;37855;53.204;6.568;2024-02-14T00:42:05;8.88;;;5.50;;
51800;SDS011;37855;53.204;6.568;2024-02-14T00:44:34;9.33;;;5.67;;
51800;SDS011;37855;53.204;6.568;2024-02-14T00:47:00;10.10;;;5.63;;
51800;SDS011;37855;53.204;6.568;2024-02-14T00:49:27;9.05;;;5.50;;
51800;SDS011;37855;53.204;6.568;2024-02-14T00:51:53;8.65;;;6.05;;
51800;SDS011;37855;53.204;6.568;2024-02-14T00:54:19;10.20;;;5.87;;
51800;SDS011;37855;53.204;6.568;2024-02-14T00:56:45;9.02;;;5.70;;
51800;SDS011;37855;53.204;6.568;2024-02-14T00:59:11;9.00;;;5.70;;
51800;SDS011;37855;53.204;6.568;2024-02-14T01:01:36;10.00;;;6.20;;
51800;SDS011;37855;53.204;6.568;2024-02-14T01:04:03;9.50;;;5.72;;
51800;SDS011;37855;53.204;6.568;2024-02-14T01:06:30;7.60;;;5.70;;
51800;SDS011;37855;53.204;6.568;2024-02-14T01:08:56;11.00;;;6.28;;
51800;SDS011;37855;53.204;6.568;2024-02-14T01:11:21;9.77;;;5.90;;
51800;SDS011;37855;53.204;6.568;2024-02-14T01:13:50;8.23;;;6.10;;
51800;SDS011;37855;53.204;6.568;2024-02-14T01:16:16;9.65;;;5.60;;
51800;SDS011;37855;53.204;6.568;2024-02-14T01:18:43;8.60;;;5.72;;
51800;SDS011;37855;53.204;6.568;2024-02-14T01:21:09;9.97;;;5.83;;
51800;SDS011;37855;53.204;6.568;2024-02-14T01:23:34;8.43;;;5.70;;
51800;SDS011;37855;53.204;6.568;2024-02-14T01:26:01;8.25;;;5.30;;
51800;SDS011;37855;53.204;6.568;2024-02-14T01:28:27;9.30;;;5.60;;
51800;SDS011;37855;53.204;6.568;2024-02-14T01:30:53;7.80;;;5.40;;
51800;SDS011;37855;53.204;6.568;2024-02-14T01:33:18;8.30;;;5.30;;
51800;SDS011;37855;53.204;6.568;2024-02-14T01:35:44;8.27;;;5.30;;
51800;SDS011;37855;53.204;6.568;2024-02-14T01:38:09;7.13;;;4.93;;
51800;SDS011;37855;53.204;6.568;2024-02-14T01:40:37;7.60;;;5.05;;
51800;SDS011;37855;53.204;6.568;2024-02-14T01:43:03;7.07;;;5.10;;
51800;SDS011;37855;53.204;6.568;2024-02-14T01:45:29;8.03;;;4.90;;
51800;SDS011;37855;53.204;6.568;2024-02-14T01:47:54;6.80;;;4.83;;
51800;SDS011;37855;53.204;6.568;2024-02-14T01:50:23;7.20;;;5.00;;
51800;SDS011;37855;53.204;6.568;2024-02-14T01:52:55;7.43;;;4.90;;
51800;SDS011;37855;53.204;6.568;2024-02-14T01:55:22;7.23;;;4.57;;
51800;SDS011;37855;53.204;6.568;2024-02-14T01:57:48;6.57;;;4.75;;
51800;SDS011;37855;53.204;6.568;2024-02-14T02:00:14;6.68;;;4.50;;
51800;SDS011;37855;53.204;6.568;2024-02-14T02:02:43;6.47;;;4.38;;
51800;SDS011;37855;53.204;6.568;2024-02-14T02:05:09;6.93;;;4.50;;
51800;SDS011;37855;53.204;6.568;2024-02-14T02:07:36;6.70;;;4.20;;
51800;SDS011;37855;53.204;6.568;2024-02-14T02:10:05;8.30;;;4.30;;
51800;SDS011;37855;53.204;6.568;2024-02-14T02:12:34;5.88;;;4.00;;
51800;SDS011;37855;53.204;6.568;2024-02-14T02:15:02;7.13;;;4.22;;
51800;SDS011;37855;53.204;6.568;2024-02-14T02:17:28;7.13;;;4.00;;
51800;SDS011;37855;53.204;6.568;2024-02-14T02:19:57;5.90;;;3.70;;
51800;SDS011;37855;53.204;6.568;2024-02-14T02:22:22;6.53;;;4.00;;
51800;SDS011;37855;53.204;6.568;2024-02-14T02:24:48;6.90;;;4.03;;
51800;SDS011;37855;53.204;6.568;2024-02-14T02:27:18;5.72;;;3.90;;
51800;SDS011;37855;53.204;6.568;2024-02-14T02:29:45;5.78;;;4.00;;
51800;SDS011;37855;53.204;6.568;2024-02-14T02:32:11;6.05;;;3.67;;
51800;SDS011;37855;53.204;6.568;2024-02-14T02:34:40;6.67;;;3.93;;
51800;SDS011;37855;53.204;6.568;2024-02-14T02:37:05;5.72;;;3.60;;
51800;SDS011;37855;53.204;6.568;2024-02-14T02:39:34;6.78;;;4.05;;
51800;SDS011;37855;53.204;6.568;2024-02-14T02:42:04;5.50;;;3.57;;
51800;SDS011;37855;53.204;6.568;2024-02-14T02:44:31;5.30;;;3.58;;
51800;SDS011;37855;53.204;6.568;2024-02-14T02:46:59;5.68;;;4.07;;
51800;SDS011;37855;53.204;6.568;2024-02-14T02:49:25;5.45;;;3.90;;
51800;SDS011;37855;53.204;6.568;2024-02-14T02:51:54;5.85;;;3.92;;
51800;SDS011;37855;53.204;6.568;2024-02-14T02:54:21;7.20;;;4.10;;
51800;SDS011;37855;53.204;6.568;2024-02-14T02:56:48;6.05;;;3.85;;
51800;SDS011;37855;53.204;6.568;2024-02-14T02:59:14;5.78;;;4.03;;
51800;SDS011;37855;53.204;6.568;2024-02-14T03:01:42;6.38;;;3.90;;
51800;SDS011;37855;53.204;6.568;2024-02-14T03:04:09;6.68;;;3.88;;
51800;SDS011;37855;53.204;6.568;2024-02-14T03:06:35;6.57;;;4.10;;
51800;SDS011;37855;53.204;6.568;2024-02-14T03:09:04;6.25;;;3.70;;
51800;SDS011;37855;53.204;6.568;2024-02-14T03:11:30;6.32;;;3.72;;
51800;SDS011;37855;53.204;6.568;2024-02-14T03:14:00;5.70;;;4.03;;
51800;SDS011;37855;53.204;6.568;2024-02-14T03:16:30;5.75;;;3.63;;
51800;SDS011;37855;53.204;6.568;2024-02-14T03:18:59;5.63;;;3.83;;
51800;SDS011;37855;53.204;6.568;2024-02-14T03:21:26;6.47;;;3.70;;
51800;SDS011;37855;53.204;6.568;2024-02-14T03:23:52;6.13;;;3.60;;
51800;SDS011;37855;53.204;6.568;2024-02-14T03:26:19;5.77;;;3.77;;
51800;SDS011;37855;53.204;6.568;2024-02-14T03:28:44;5.30;;;3.72;;
51800;SDS011;37855;53.204;6.568;2024-02-14T03:31:10;5.67;;;3.67;;
51800;SDS011;37855;53.204;6.568;2024-02-14T03:33:41;5.50;;;3.58;;
51800;SDS011;37855;53.204;6.568;2024-02-14T03:36:07;5.28;;;3.40;;
51800;SDS011;37855;53.204;6.568;2024-02-14T03:44:25;6.07;;;3.50;;
51800;SDS011;37855;53.204;6.568;2024-02-14T03:49:35;5.20;;;3.30;;
51800;SDS011;37855;53.204;6.568;2024-02-14T03:52:01;4.93;;;3.10;;
51800;SDS011;37855;53.204;6.568;2024-02-14T03:54:34;4.75;;;2.95;;
51800;SDS011;37855;53.204;6.568;2024-02-14T03:57:01;5.00;;;2.83;;
51800;SDS011;37855;53.204;6.568;2024-02-14T03:59:27;5.00;;;3.00;;
51800;SDS011;37855;53.204;6.568;2024-02-14T04:01:53;5.30;;;3.20;;
51800;SDS011;37855;53.204;6.568;2024-02-14T04:04:20;5.97;;;3.30;;
51800;SDS011;37855;53.204;6.568;2024-02-14T04:06:46;5.78;;;3.28;;
51800;SDS011;37855;53.204;6.568;2024-02-14T04:09:12;4.93;;;3.10;;
51800;SDS011;37855;53.204;6.568;2024-02-14T04:11:38;5.60;;;3.17;;
51800;SDS011;37855;53.204;6.568;2024-02-14T04:14:04;5.10;;;3.20;;
51800;SDS011;37855;53.204;6.568;2024-02-14T04:16:30;5.30;;;3.33;;
51800;SDS011;37855;53.204;6.568;2024-02-14T04:18:59;6.80;;;3.50;;
51800;SDS011;37855;53.204;6.568;2024-02-14T04:21:24;5.67;;;3.60;;
51800;SDS011;37855;53.204;6.568;2024-02-14T04:23:50;6.45;;;4.20;;
51800;SDS011;37855;53.204;6.568;2024-02-14T04:26:21;6.35;;;3.50;;
51800;SDS011;37855;53.204;6.568;2024-02-14T04:28:47;6.30;;;4.10;;
51800;SDS011;37855;53.204;6.568;2024-02-14T04:31:13;7.28;;;4.05;;
51800;SDS011;37855;53.204;6.568;2024-02-14T04:33:39;6.13;;;4.27;;
51800;SDS011;37855;53.204;6.568;2024-02-14T04:36:05;5.70;;;3.88;;
51800;SDS011;37855;53.204;6.568;2024-02-14T04:38:31;7.10;;;4.20;;
51800;SDS011;37855;53.204;6.568;2024-02-14T04:40:57;7.22;;;4.00;;
51800;SDS011;37855;53.204;6.568;2024-02-14T04:43:23;6.38;;;4.35;;
51800;SDS011;37855;53.204;6.568;2024-02-14T04:45:51;7.00;;;4.43;;
51800;SDS011;37855;53.204;6.568;2024-02-14T04:48:17;6.68;;;4.50;;
51800;SDS011;37855;53.204;6.568;2024-02-14T04:50:43;6.57;;;4.35;;
51800;SDS011;37855;53.204;6.568;2024-02-14T04:53:08;8.40;;;5.10;;
51800;SDS011;37855;53.204;6.568;2024-02-14T04:55:34;7.30;;;4.70;;
51800;SDS011;37855;53.204;6.568;2024-02-14T04:58:00;7.10;;;5.07;;
51800;SDS011;37855;53.204;6.568;2024-02-14T05:00:26;6.97;;;4.60;;
51800;SDS011;37855;53.204;6.568;2024-02-14T05:02:53;6.85;;;4.38;;
51800;SDS011;37855;53.204;6.568;2024-02-14T05:05:18;6.80;;;4.47;;
51800;SDS011;37855;53.204;6.568;2024-02-14T05:07:45;6.88;;;4.22;;
51800;SDS011;37855;53.204;6.568;2024-02-14T05:10:11;7.95;;;4.47;;
51800;SDS011;37855;53.204;6.568;2024-02-14T05:12:39;6.47;;;4.13;;
51800;SDS011;37855;53.204;6.568;2024-02-14T05:15:05;7.30;;;4.60;;
51800;SDS011;37855;53.204;6.568;2024-02-14T05:17:31;8.50;;;4.57;;
51800;SDS011;37855;53.204;6.568;2024-02-14T05:19:57;6.70;;;4.57;;
51800;SDS011;37855;53.204;6.568;2024-02-14T05:22:23;6.40;;;4.10;;
51800;SDS011;37855;53.204;6.568;2024-02-14T05:24:52;6.93;;;4.35;;
51800;SDS011;37855;53.204;6.568;2024-02-14T05:27:17;6.63;;;4.43;;
51800;SDS011;37855;53.204;6.568;2024-02-14T05:29:43;8.33;;;4.57;;
51800;SDS011;37855;53.204;6.568;2024-02-14T05:32:10;8.23;;;4.38;;
51800;SDS011;37855;53.204;6.568;2024-02-14T05:34:36;8.48;;;4.22;;
51800;SDS011;37855;53.204;6.568;2024-02-14T05:37:01;6.07;;;3.90;;
51800;SDS011;37855;53.204;6.568;2024-02-14T05:39:27;7.60;;;4.20;;
51800;SDS011;37855;53.204;6.568;2024-02-14T05:41:53;7.10;;;4.17;;
51800;SDS011;37855;53.204;6.568;2024-02-14T05:44:19;9.13;;;4.03;;
51800;SDS011;37855;53.204;6.568;2024-02-14T05:46:46;6.35;;;4.20;;
51800;SDS011;37855;53.204;6.568;2024-02-14T05:49:11;7.27;;;4.27;;
51800;SDS011;37855;53.204;6.568;2024-02-14T05:51:38;6.97;;;4.20;;
51800;SDS011;37855;53.204;6.568;2024-02-14T05:54:07;8.15;;;4.65;;
51800;SDS011;37855;53.204;6.568;2024-02-14T05:56:32;9.02;;;4.55;;
51800;SDS011;37855;53.204;6.568;2024-02-14T05:58:58;7.93;;;4.60;;
51800;SDS011;37855;53.204;6.568;2024-02-14T06:03:59;7.50;;;4.10;;
51800;SDS011;37855;53.204;6.568;2024-02-14T06:18:26;8.23;;;3.78;;
51800;SDS011;37855;53.204;6.568;2024-02-14T06:20:52;8.15;;;4.00;;
51800;SDS011;37855;53.204;6.568;2024-02-14T06:23:27;7.97;;;3.87;;
51800;SDS011;37855;53.204;6.568;2024-02-14T06:26:02;7.93;;;3.85;;
51800;SDS011;37855;53.204;6.568;2024-02-14T06:28:47;7.20;;;3.83;;
51800;SDS011;37855;53.204;6.568;2024-02-14T06:31:17;13.60;;;4.90;;
51800;SDS011;37855;53.204;6.568;2024-02-14T06:33:42;14.70;;;4.60;;
51800;SDS011;37855;53.204;6.568;2024-02-14T06:36:09;18.05;;;5.53;;
51800;SDS011;37855;53.204;6.568;2024-02-14T06:38:34;20.63;;;5.50;;
51800;SDS011;37855;53.204;6.568;2024-02-14T06:41:00;27.77;;;6.25;;
51800;SDS011;37855;53.204;6.568;2024-02-14T06:43:26;20.00;;;5.27;;
51800;SDS011;37855;53.204;6.568;2024-02-14T06:45:51;23.85;;;5.90;;
51800;SDS011;37855;53.204;6.568;2024-02-14T06:48:17;26.73;;;5.77;;
51800;SDS011;37855;53.204;6.568;2024-02-14T06:50:46;25.80;;;6.40;;
51800;SDS011;37855;53.204;6.568;2024-02-14T06:53:17;26.45;;;6.15;;
51800;SDS011;37855;53.204;6.568;2024-02-14T06:55:44;28.42;;;5.75;;
51800;SDS011;37855;53.204;6.568;2024-02-14T06:58:12;26.23;;;6.07;;
51800;SDS011;37855;53.204;6.568;2024-02-14T07:00:38;34.50;;;6.00;;
51800;SDS011;37855;53.204;6.568;2024-02-14T07:03:04;25.42;;;4.85;;
51800;SDS011;37855;53.204;6.568;2024-02-14T07:05:30;25.50;;;6.23;;
51800;SDS011;37855;53.204;6.568;2024-02-14T07:07:59;23.58;;;5.38;;
51800;SDS011;37855;53.204;6.568;2024-02-14T07:10:24;32.03;;;5.80;;
51800;SDS011;37855;53.204;6.568;2024-02-14T07:12:50;31.02;;;5.78;;
51800;SDS011;37855;53.204;6.568;2024-02-14T07:15:16;30.57;;;4.90;;
51800;SDS011;37855;53.204;6.568;2024-02-14T07:17:42;31.93;;;5.83;;
51800;SDS011;37855;53.204;6.568;2024-02-14T07:20:08;26.52;;;5.60;;
51800;SDS011;37855;53.204;6.568;2024-02-14T07:22:35;33.03;;;5.72;;
51800;SDS011;37855;53.204;6.568;2024-02-14T07:27:36;30.53;;;7.17;;
51800;SDS011;37855;53.204;6.568;2024-02-14T07:30:17;28.80;;;5.32;;
51800;SDS011;37855;53.204;6.568;2024-02-14T07:32:44;28.00;;;5.40;;
51800;SDS011;37855;53.204;6.568;2024-02-14T07:35:24;36.50;;;5.88;;
51800;SDS011;37855;53.204;6.568;2024-02-14T07:38:50;23.00;;;5.87;;
51800;SDS011;37855;53.204;6.568;2024-02-14T07:41:49;32.78;;;5.35;;
51800;SDS011;37855;53.204;6.568;2024-02-14T07:44:26;33.50;;;7.00;;
51800;SDS011;37855;53.204;6.568;2024-02-14T07:46:51;36.40;;;5.90;;
51800;SDS011;37855;53.204;6.568;2024-02-14T07:49:18;36.47;;;7.57;;
51800;SDS011;37855;53.204;6.568;2024-02-14T07:51:47;28.30;;;5.90;;
51800;SDS011;37855;53.204;6.568;2024-02-14T07:54:14;31.17;;;6.13;;
51800;SDS011;37855;53.204;6.568;2024-02-14T07:56:40;41.65;;;6.78;;
51800;SDS011;37855;53.204;6.568;2024-02-14T07:59:05;32.13;;;5.50;;
51800;SDS011;37855;53.204;6.568;2024-02-14T08:01:34;29.67;;;5.33;;
51800;SDS011;37855;53.204;6.568;2024-02-14T08:04:00;37.08;;;6.55;;
51800;SDS011;37855;53.204;6.568;2024-02-14T08:06:25;31.73;;;6.03;;
51800;SDS011;37855;53.204;6.568;2024-02-14T08:08:51;40.20;;;7.57;;
51800;SDS011;37855;53.204;6.568;2024-02-14T08:11:22;28.65;;;5.45;;
51800;SDS011;37855;53.204;6.568;2024-02-14T08:13:48;31.58;;;5.90;;
51800;SDS011;37855;53.204;6.568;2024-02-14T08:16:14;37.10;;;6.13;;
51800;SDS011;37855;53.204;6.568;2024-02-14T08:18:41;38.22;;;5.72;;
51800;SDS011;37855;53.204;6.568;2024-02-14T08:21:12;33.65;;;6.13;;
51800;SDS011;37855;53.204;6.568;2024-02-14T08:23:37;31.77;;;6.13;;
51800;SDS011;37855;53.204;6.568;2024-02-14T08:26:05;33.33;;;5.75;;
51800;SDS011;37855;53.204;6.568;2024-02-14T08:28:36;30.45;;;5.65;;
51800;SDS011;37855;53.204;6.568;2024-02-14T08:31:02;26.38;;;5.35;;
51800;SDS011;37855;53.204;6.568;2024-02-14T08:44:18;30.48;;;6.28;;
51800;SDS011;37855;53.204;6.568;2024-02-14T08:46:44;35.50;;;6.37;;
51800;SDS011;37855;53.204;6.568;2024-02-14T08:49:19;30.40;;;5.78;;
51800;SDS011;37855;53.204;6.568;2024-02-14T08:51:46;31.70;;;6.70;;
51800;SDS011;37855;53.204;6.568;2024-02-14T08:54:12;23.45;;;5.68;;
51800;SDS011;37855;53.204;6.568;2024-02-14T08:56:41;28.60;;;5.82;;
51800;SDS011;37855;53.204;6.568;2024-02-14T08:59:10;27.63;;;5.93;;
51800;SDS011;37855;53.204;6.568;2024-02-14T09:01:54;28.63;;;6.72;;
51800;SDS011;37855;53.204;6.568;2024-02-14T09:04:22;24.77;;;6.65;;
51800;SDS011;37855;53.204;6.568;2024-02-14T09:07:22;28.17;;;6.15;;
51800;SDS011;37855;53.204;6.568;2024-02-14T09:09:51;21.20;;;6.32;;
51800;SDS011;37855;53.204;6.568;2024-02-14T09:12:16;21.93;;;6.43;;
51800;SDS011;37855;53.204;6.568;2024-02-14T09:14:44;20.92;;;6.75;;
51800;SDS011;37855;53.204;6.568;2024-02-14T09:17:11;22.52;;;7.07;;
51800;SDS011;37855;53.204;6.568;2024-02-14T09:19:40;19.37;;;7.50;;
51800;SDS011;37855;53.204;6.568;2024-02-14T09:22:07;27.88;;;7.90;;
51800;SDS011;37855;53.204;6.568;2024-02-14T09:24:33;23.42;;;7.57;;
51800;SDS011;37855;53.204;6.568;2024-02-14T09:29:30;23.30;;;8.23;;
51800;SDS011;37855;53.204;6.568;2024-02-14T09:31:59;23.13;;;8.07;;
51800;SDS011;37855;53.204;6.568;2024-02-14T09:34:33;29.88;;;8.77;;
51800;SDS011;37855;53.204;6.568;2024-02-14T09:37:01;25.40;;;8.10;;
51800;SDS011;37855;53.204;6.568;2024-02-14T09:39:31;27.50;;;9.00;;
51800;SDS011;37855;53.204;6.568;2024-02-14T09:41:59;25.52;;;8.88;;
51800;SDS011;37855;53.204;6.568;2024-02-14T09:44:41;26.05;;;8.85;;
51800;SDS011;37855;53.204;6.568;2024-02-14T09:47:18;26.35;;;8.52;;
51800;SDS011;37855;53.204;6.568;2024-02-14T09:49:48;26.27;;;7.75;;
51800;SDS011;37855;53.204;6.568;2024-02-14T09:52:18;22.70;;;7.07;;
51800;SDS011;37855;53.204;6.568;2024-02-14T09:54:47;23.08;;;7.82;;
51800;SDS011;37855;53.204;6.568;2024-02-14T09:57:16;21.48;;;7.18;;
51800;SDS011;37855;53.204;6.568;2024-02-14T09:59:46;21.92;;;6.32;;
51800;SDS011;37855;53.204;6.568;2024-02-14T10:02:14;25.48;;;7.07;;
51800;SDS011;37855;53.204;6.568;2024-02-14T10:04:39;26.30;;;7.00;;
51800;SDS011;37855;53.204;6.568;2024-02-14T10:07:05;18.13;;;6.50;;
51800;SDS011;37855;53.204;6.568;2024-02-14T10:09:31;23.75;;;6.90;;
51800;SDS011;37855;53.204;6.568;2024-02-14T10:12:06;22.55;;;6.13;;
51800;SDS011;37855;53.204;6.568;2024-02-14T10:14:34;15.93;;;6.50;;
51800;SDS011;37855;53.204;6.568;2024-02-14T10:17:01;21.90;;;5.85;;
51800;SDS011;37855;53.204;6.568;2024-02-14T10:19:28;17.95;;;6.07;;
51800;SDS011;37855;53.204;6.568;2024-02-14T10:22:00;20.63;;;6.38;;
51800;SDS011;37855;53.204;6.568;2024-02-14T10:24:30;13.57;;;5.10;;
51800;SDS011;37855;53.204;6.568;2024-02-14T10:26:59;17.55;;;5.60;;
51800;SDS011;37855;53.204;6.568;2024-02-14T10:29:25;13.40;;;5.07;;
51800;SDS011;37855;53.204;6.568;2024-02-14T10:31:52;16.43;;;5.47;;
51800;SDS011;37855;53.204;6.568;2024-02-14T10:34:18;13.77;;;5.53;;
51800;SDS011;37855;53.204;6.568;2024-02-14T10:36:52;16.45;;;6.28;;
51800;SDS011;37855;53.204;6.568;2024-02-14T10:39:21;15.50;;;6.43;;
51800;SDS011;37855;53.204;6.568;2024-02-14T10:45:22;15.93;;;6.10;;
51800;SDS011;37855;53.204;6.568;2024-02-14T10:51:25;10.10;;;5.22;;
51800;SDS011;37855;53.204;6.568;2024-02-14T10:56:34;14.95;;;5.32;;
51800;SDS011;37855;53.204;6.568;2024-02-14T10:59:07;9.43;;;4.30;;
51800;SDS011;37855;53.204;6.568;2024-02-14T11:01:38;11.70;;;4.10;;
51800;SDS011;37855;53.204;6.568;2024-02-14T11:04:08;8.77;;;4.07;;
51800;SDS011;37855;53.204;6.568;2024-02-14T11:06:46;11.23;;;3.80;;
51800;SDS011;37855;53.204;6.568;2024-02-14T11:09:16;8.18;;;3.80;;
51800;SDS011;37855;53.204;6.568;2024-02-14T11:11:42;8.90;;;3.97;;
51800;SDS011;37855;53.204;6.568;2024-02-14T11:14:10;9.32;;;4.25;;
51800;SDS011;37855;53.204;6.568;2024-02-14T11:16:47;6.97;;;4.13;;
51800;SDS011;37855;53.204;6.568;2024-02-14T11:19:13;9.55;;;5.05;;
51800;SDS011;37855;53.204;6.568;2024-02-14T11:21:47;10.40;;;5.10;;
51800;SDS011;37855;53.204;6.568;2024-02-14T11:24:14;12.52;;;5.32;;
51800;SDS011;37855;53.204;6.568;2024-02-14T11:26:50;10.35;;;4.97;;
51800;SDS011;37855;53.204;6.568;2024-02-14T11:29:19;10.50;;;5.38;;
51800;SDS011;37855;53.204;6.568;2024-02-14T11:31:45;10.48;;;5.40;;
51800;SDS011;37855;53.204;6.568;2024-02-14T11:34:13;10.80;;;5.47;;
51800;SDS011;37855;53.204;6.568;2024-02-14T11:36:45;9.88;;;5.35;;
51800;SDS011;37855;53.204;6.568;2024-02-14T11:39:13;10.55;;;6.00;;
51800;SDS011;37855;53.204;6.568;2024-02-14T11:41:39;12.93;;;6.10;;
51800;SDS011;37855;53.204;6.568;2024-02-14T11:44:07;9.05;;;5.07;;
51800;SDS011;37855;53.204;6.568;2024-02-14T11:46:33;9.03;;;4.90;;
51800;SDS011;37855;53.204;6.568;2024-02-14T11:49:04;10.10;;;5.15;;
51800;SDS011;37855;53.204;6.568;2024-02-14T11:51:31;8.50;;;4.80;;
51800;SDS011;37855;53.204;6.568;2024-02-14T11:54:00;8.80;;;4.88;;
51800;SDS011;37855;53.204;6.568;2024-02-14T11:56:37;9.93;;;4.90;;
51800;SDS011;37855;53.204;6.568;2024-02-14T11:59:08;8.27;;;4.18;;
51800;SDS011;37855;53.204;6.568;2024-02-14T12:01:37;7.07;;;4.43;;
51800;SDS011;37855;53.204;6.568;2024-02-14T12:04:04;7.97;;;3.60;;
51800;SDS011;37855;53.204;6.568;2024-02-14T12:06:32;9.43;;;3.72;;
51800;SDS011;37855;53.204;6.568;2024-02-14T12:09:05;6.70;;;3.10;;
51800;SDS011;37855;53.204;6.568;2024-02-14T12:11:34;6.07;;;3.10;;
51800;SDS011;37855;53.204;6.568;2024-02-14T12:14:08;6.30;;;2.85;;
51800;SDS011;37855;53.204;6.568;2024-02-14T12:16:38;7.05;;;3.20;;
51800;SDS011;37855;53.204;6.568;2024-02-14T12:19:06;5.57;;;2.80;;
51800;SDS011;37855;53.204;6.568;2024-02-14T12:21:38;5.40;;;2.50;;
51800;SDS011;37855;53.204;6.568;2024-02-14T12:24:08;6.00;;;3.42;;
51800;SDS011;37855;53.204;6.568;2024-02-14T12:26:40;6.65;;;3.42;;
51800;SDS011;37855;53.204;6.568;2024-02-14T12:29:07;6.70;;;2.90;;
51800;SDS011;37855;53.204;6.568;2024-02-14T12:31:34;6.50;;;3.60;;
51800;SDS011;37855;53.204;6.568;2024-02-14T12:34:00;7.07;;;3.57;;
51800;SDS011;37855;53.204;6.568;2024-02-14T12:36:28;6.63;;;4.00;;
51800;SDS011;37855;53.204;6.568;2024-02-14T12:38:54;8.18;;;4.15;;
51800;SDS011;37855;53.204;6.568;2024-02-14T12:41:20;8.60;;;4.30;;
51800;SDS011;37855;53.204;6.568;2024-02-14T12:43:48;7.88;;;5.07;;
51800;SDS011;37855;53.204;6.568;2024-02-14T12:46:14;8.90;;;4.67;;
51800;SDS011;37855;53.204;6.568;2024-02-14T12:48:40;8.25;;;4.78;;
51800;SDS011;37855;53.204;6.568;2024-02-14T12:51:06;8.68;;;4.93;;
51800;SDS011;37855;53.204;6.568;2024-02-14T12:53:36;10.80;;;5.68;;
51800;SDS011;37855;53.204;6.568;2024-02-14T12:56:01;8.70;;;5.30;;
51800;SDS011;37855;53.204;6.568;2024-02-14T12:58:29;9.52;;;5.95;;
51800;SDS011;37855;53.204;6.568;2024-02-14T13:00:56;10.75;;;5.97;;
51800;SDS011;37855;53.204;6.568;2024-02-14T13:03:21;8.23;;;6.10;;
51800;SDS011;37855;53.204;6.568;2024-02-14T13:05:47;10.23;;;5.70;;
51800;SDS011;37855;53.204;6.568;2024-02-14T13:08:15;8.02;;;5.20;;
51800;SDS011;37855;53.204;6.568;2024-02-14T13:10:41;6.85;;;4.75;;
51800;SDS011;37855;53.204;6.568;2024-02-14T13:13:08;8.23;;;5.30;;
51800;SDS011;37855;53.204;6.568;2024-02-14T13:15:34;6.82;;;5.10;;
51800;SDS011;37855;53.204;6.568;2024-02-14T13:18:00;6.47;;;4.80;;
51800;SDS011;37855;53.204;6.568;2024-02-14T13:20:29;6.68;;;4.82;;
51800;SDS011;37855;53.204;6.568;2024-02-14T13:22:59;8.77;;;4.70;;
51800;SDS011;37855;53.204;6.568;2024-02-14T13:25:24;7.53;;;4.90;;
51800;SDS011;37855;53.204;6.568;2024-02-14T13:27:51;7.15;;;4.63;;
51800;SDS011;37855;53.204;6.568;2024-02-14T13:30:17;7.17;;;4.60;;
51800;SDS011;37855;53.204;6.568;2024-02-14T13:32:43;8.80;;;5.18;;
51800;SDS011;37855;53.204;6.568;2024-02-14T13:35:09;8.65;;;5.60;;
51800;SDS011;37855;53.204;6.568;2024-02-14T13:37:36;7.73;;;4.97;;
51800;SDS011;37855;53.204;6.568;2024-02-14T13:40:02;11.35;;;5.28;;
51800;SDS011;37855;53.204;6.568;2024-02-14T13:42:29;9.02;;;5.65;;
51800;SDS011;37855;53.204;6.568;2024-02-14T13:44:55;9.13;;;5.47;;
51800;SDS011;37855;53.204;6.568;2024-02-14T13:47:21;10.52;;;5.70;;
51800;SDS011;37855;53.204;6.568;2024-02-14T13:49:48;9.73;;;5.72;;
51800;SDS011;37855;53.204;6.568;2024-02-14T13:52:13;9.57;;;5.50;;
51800;SDS011;37855;53.204;6.568;2024-02-14T13:54:40;9.15;;;5.88;;
51800;SDS011;37855;53.204;6.568;2024-02-14T13:57:06;9.88;;;6.00;;
51800;SDS011;37855;53.204;6.568;2024-02-14T13:59:32;12.83;;;6.37;;
51800;SDS011;37855;53.204;6.568;2024-02-14T14:01:57;9.68;;;6.18;;
51800;SDS011;37855;53.204;6.568;2024-02-14T14:04:23;11.00;;;6.60;;
51800;SDS011;37855;53.204;6.568;2024-02-14T14:06:50;11.50;;;7.00;;
51800;SDS011;37855;53.204;6.568;2024-02-14T14:09:19;14.55;;;6.88;;
51800;SDS011;37855;53.204;6.568;2024-02-14T14:11:44;10.47;;;6.77;;
51800;SDS011;37855;53.204;6.568;2024-02-14T14:14:16;12.57;;;7.45;;
51800;SDS011;37855;53.204;6.568;2024-02-14T14:16:43;13.20;;;8.27;;
51800;SDS011;37855;53.204;6.568;2024-02-14T14:19:12;11.17;;;8.23;;
51800;SDS011;37855;53.204;6.568;2024-02-14T14:21:38;11.18;;;7.88;;
51800;SDS011;37855;53.204;6.568;2024-02-14T14:24:04;11.18;;;8.23;;
51800;SDS011;37855;53.204;6.568;2024-02-14T14:26:30;12.30;;;8.60;;
51800;SDS011;37855;53.204;6.568;2024-02-14T14:28:55;11.70;;;8.18;;
51800;SDS011;37855;53.204;6.568;2024-02-14T14:31:21;12.73;;;9.00;;
51800;SDS011;37855;53.204;6.568;2024-02-14T14:33:47;12.17;;;8.20;;
51800;SDS011;37855;53.204;6.568;2024-02-14T14:36:14;13.70;;;9.07;;
51800;SDS011;37855;53.204;6.568;2024-02-14T14:38:43;12.48;;;9.35;;
51800;SDS011;37855;53.204;6.568;2024-02-14T14:41:09;13.60;;;8.87;;
51800;SDS011;37855;53.204;6.568;2024-02-14T14:43:35;15.15;;;8.95;;
51800;SDS011;37855;53.204;6.568;2024-02-14T14:46:00;13.00;;;9.50;;
51800;SDS011;37855;53.204;6.568;2024-02-14T14:48:29;12.33;;;9.33;;
51800;SDS011;37855;53.204;6.568;2024-02-14T14:50:54;12.52;;;8.90;;
51800;SDS011;37855;53.204;6.568;2024-02-14T14:53:20;12.33;;;9.30;;
51800;SDS011;37855;53.204;6.568;2024-02-14T14:55:52;11.68;;;8.80;;
51800;SDS011;37855;53.204;6.568;2024-02-14T14:58:21;11.15;;;8.13;;
51800;SDS011;37855;53.204;6.568;2024-02-14T15:00:48;12.13;;;8.45;;
51800;SDS011;37855;53.204;6.568;2024-02-14T15:03:18;11.87;;;7.97;;
51800;SDS011;37855;53.204;6.568;2024-02-14T15:05:43;10.90;;;7.75;;
51800;SDS011;37855;53.204;6.568;2024-02-14T15:08:09;9.53;;;7.37;;
51800;SDS011;37855;53.204;6.568;2024-02-14T15:10:35;9.60;;;6.85;;
51800;SDS011;37855;53.204;6.568;2024-02-14T15:13:03;9.98;;;7.15;;
51800;SDS011;37855;53.204;6.568;2024-02-14T15:15:31;9.20;;;6.70;;
51800;SDS011;37855;53.204;6.568;2024-02-14T15:17:58;9.63;;;7.00;;
51800;SDS011;37855;53.204;6.568;2024-02-14T15:20:26;10.35;;;6.93;;
51800;SDS011;37855;53.204;6.568;2024-02-14T15:22:52;9.57;;;6.90;;
51800;SDS011;37855;53.204;6.568;2024-02-14T15:25:18;8.60;;;6.03;;
51800;SDS011;37855;53.204;6.568;2024-02-14T15:30:34;9.25;;;6.28;;
51800;SDS011;37855;53.204;6.568;2024-02-14T15:33:18;8.73;;;5.83;;
51800;SDS011;37855;53.204;6.568;2024-02-14T15:35:52;9.40;;;5.97;;
51800;SDS011;37855;53.204;6.568;2024-02-14T15:38:20;9.93;;;6.25;;